Aviation Digital Data Service (ADDS)

Output produced by METARs form (0013 UTC 20 April 2019)
found at http://www.aviationweather.gov/metar/data/
 
METAR text: DAOI 200000Z 22005KT 8000 -RA SCT026 BKN030 12/12 Q1013
Conditions at: DAOI (CHLEF , DZ) observed 0000 UTC 20 April 2019
Temperature: 12.0°C (54°F)
Dewpoint: 12.0°C (54°F) [RH = 100%]
Pressure (altimeter): 29.91 inches Hg (1013.0 mb)
Winds: from the SW (220 degrees) at 6 MPH (5 knots; 2.6 m/s)
Visibility: 5 miles ( 8 km)
Ceiling: 3000 feet AGL
Clouds: scattered clouds at 2600 feet AGL
broken clouds at 3000 feet AGL
Weather: -RA  (light rain)

METAR text: DAOI 192300Z 24007KT 7000 -RA SCT026 BKN030 12/12 Q1014
Conditions at: DAOI (CHLEF , DZ) observed 2300 UTC 19 April 2019
Temperature: 12.0°C (54°F)
Dewpoint: 12.0°C (54°F) [RH = 100%]
Pressure (altimeter): 29.94 inches Hg (1014.0 mb)
Winds: from the WSW (240 degrees) at 8 MPH (7 knots; 3.6 m/s)
Visibility: 4 miles ( 7 km)
Ceiling: 3000 feet AGL
Clouds: scattered clouds at 2600 feet AGL
broken clouds at 3000 feet AGL
Weather: -RA  (light rain)

METAR text: DAOI 192200Z 26004KT 8000 -RA FEW026 BKN030 14/10 Q1014
Conditions at: DAOI (CHLEF , DZ) observed 2200 UTC 19 April 2019
Temperature: 14.0°C (57°F)
Dewpoint: 10.0°C (50°F) [RH = 77%]
Pressure (altimeter): 29.94 inches Hg (1014.0 mb)
Winds: from the W (260 degrees) at 5 MPH (4 knots; 2.1 m/s)
Visibility: 5 miles ( 8 km)
Ceiling: 3000 feet AGL
Clouds: few clouds at 2600 feet AGL
broken clouds at 3000 feet AGL
Weather: -RA  (light rain)

METAR text: DAOI 192100Z 21004KT 9999 FEW026 BKN030 14/11 Q1013
Conditions at: DAOI (CHLEF , DZ) observed 2100 UTC 19 April 2019
Temperature: 14.0°C (57°F)
Dewpoint: 11.0°C (52°F) [RH = 82%]
Pressure (altimeter): 29.91 inches Hg (1013.0 mb)
Winds: from the SSW (210 degrees) at 5 MPH (4 knots; 2.1 m/s)
Visibility: 6 or more miles (10+ km)
Ceiling: 3000 feet AGL
Clouds: few clouds at 2600 feet AGL
broken clouds at 3000 feet AGL
Weather: no significant weather observed at this time

METAR text: DAOI 192000Z 31005KT 9999 FEW026 BKN030 14/11 Q1013
Conditions at: DAOI (CHLEF , DZ) observed 2000 UTC 19 April 2019
Temperature: 14.0°C (57°F)
Dewpoint: 11.0°C (52°F) [RH = 82%]
Pressure (altimeter): 29.91 inches Hg (1013.0 mb)
Winds: from the NW (310 degrees) at 6 MPH (5 knots; 2.6 m/s)
Visibility: 6 or more miles (10+ km)
Ceiling: 3000 feet AGL
Clouds: few clouds at 2600 feet AGL
broken clouds at 3000 feet AGL
Weather: no significant weather observed at this time

METAR text: DAOI 191900Z 11003KT 9999 FEW026 BKN030 15/10 Q1013
Conditions at: DAOI (CHLEF , DZ) observed 1900 UTC 19 April 2019
Temperature: 15.0°C (59°F)
Dewpoint: 10.0°C (50°F) [RH = 72%]
Pressure (altimeter): 29.91 inches Hg (1013.0 mb)
Winds: from the ESE (110 degrees) at 3 MPH (3 knots; 1.5 m/s)
Visibility: 6 or more miles (10+ km)
Ceiling: 3000 feet AGL
Clouds: few clouds at 2600 feet AGL
broken clouds at 3000 feet AGL
Weather: no significant weather observed at this time

METAR text: DAOI 191800Z 09006KT 9999 FEW026 BKN030 15/10 Q1012
Conditions at: DAOI (CHLEF , DZ) observed 1800 UTC 19 April 2019
Temperature: 15.0°C (59°F)
Dewpoint: 10.0°C (50°F) [RH = 72%]
Pressure (altimeter): 29.88 inches Hg (1012.0 mb)
Winds: from the E (90 degrees) at 7 MPH (6 knots; 3.1 m/s)
Visibility: 6 or more miles (10+ km)
Ceiling: 3000 feet AGL
Clouds: few clouds at 2600 feet AGL
broken clouds at 3000 feet AGL
Weather: no significant weather observed at this time

METAR text: DAOI 191700Z 35011KT 9999 FEW026 BKN030 15/10 Q1013
Conditions at: DAOI (CHLEF , DZ) observed 1700 UTC 19 April 2019
Temperature: 15.0°C (59°F)
Dewpoint: 10.0°C (50°F) [RH = 72%]
Pressure (altimeter): 29.91 inches Hg (1013.0 mb)
Winds: from the N (350 degrees) at 13 MPH (11 knots; 5.7 m/s)
Visibility: 6 or more miles (10+ km)
Ceiling: 3000 feet AGL
Clouds: few clouds at 2600 feet AGL
broken clouds at 3000 feet AGL
Weather: no significant weather observed at this time

METAR text: DAOI 191600Z 33010KT 9999 FEW026 BKN030 15/10 Q1013
Conditions at: DAOI (CHLEF , DZ) observed 1600 UTC 19 April 2019
Temperature: 15.0°C (59°F)
Dewpoint: 10.0°C (50°F) [RH = 72%]
Pressure (altimeter): 29.91 inches Hg (1013.0 mb)
Winds: from the NNW (330 degrees) at 12 MPH (10 knots; 5.1 m/s)
Visibility: 6 or more miles (10+ km)
Ceiling: 3000 feet AGL
Clouds: few clouds at 2600 feet AGL
broken clouds at 3000 feet AGL
Weather: no significant weather observed at this time

METAR text: DAOI 191500Z 32008KT 9999 SCT026 SCT030 15/10 Q1014
Conditions at: DAOI (CHLEF , DZ) observed 1500 UTC 19 April 2019
Temperature: 15.0°C (59°F)
Dewpoint: 10.0°C (50°F) [RH = 72%]
Pressure (altimeter): 29.94 inches Hg (1014.0 mb)
Winds: from the NW (320 degrees) at 9 MPH (8 knots; 4.1 m/s)
Visibility: 6 or more miles (10+ km)
Ceiling: at least 12,000 feet AGL
Clouds: scattered clouds at 2600 feet AGL
scattered clouds at 3000 feet AGL
Weather: no significant weather observed at this time

METAR text: DAOI 191400Z 32012KT 9999 SCT026 SCT030 15/09 Q1013
Conditions at: DAOI (CHLEF , DZ) observed 1400 UTC 19 April 2019
Temperature: 15.0°C (59°F)
Dewpoint: 9.0°C (48°F) [RH = 67%]
Pressure (altimeter): 29.91 inches Hg (1013.0 mb)
Winds: from the NW (320 degrees) at 14 MPH (12 knots; 6.2 m/s)
Visibility: 6 or more miles (10+ km)
Ceiling: at least 12,000 feet AGL
Clouds: scattered clouds at 2600 feet AGL
scattered clouds at 3000 feet AGL
Weather: no significant weather observed at this time

METAR text: DAOI 191300Z 32012KT 9999 SCT026 SCT030 15/09 Q1014
Conditions at: DAOI (CHLEF , DZ) observed 1300 UTC 19 April 2019
Temperature: 15.0°C (59°F)
Dewpoint: 9.0°C (48°F) [RH = 67%]
Pressure (altimeter): 29.94 inches Hg (1014.0 mb)
Winds: from the NW (320 degrees) at 14 MPH (12 knots; 6.2 m/s)
Visibility: 6 or more miles (10+ km)
Ceiling: at least 12,000 feet AGL
Clouds: scattered clouds at 2600 feet AGL
scattered clouds at 3000 feet AGL
Weather: no significant weather observed at this time

METAR text: DAOI 191200Z 32010KT 9999 SCT026 SCT030 16/09 Q1014
Conditions at: DAOI (CHLEF , DZ) observed 1200 UTC 19 April 2019
Temperature: 16.0°C (61°F)
Dewpoint: 9.0°C (48°F) [RH = 63%]
Pressure (altimeter): 29.94 inches Hg (1014.0 mb)
Winds: from the NW (320 degrees) at 12 MPH (10 knots; 5.1 m/s)
Visibility: 6 or more miles (10+ km)
Ceiling: at least 12,000 feet AGL
Clouds: scattered clouds at 2600 feet AGL
scattered clouds at 3000 feet AGL
Weather: no significant weather observed at this time

METAR text: DAOI 191100Z 32010KT 9999 SCT026 SCT030 16/10 Q1014
Conditions at: DAOI (CHLEF , DZ) observed 1100 UTC 19 April 2019
Temperature: 16.0°C (61°F)
Dewpoint: 10.0°C (50°F) [RH = 68%]
Pressure (altimeter): 29.94 inches Hg (1014.0 mb)
Winds: from the NW (320 degrees) at 12 MPH (10 knots; 5.1 m/s)
Visibility: 6 or more miles (10+ km)
Ceiling: at least 12,000 feet AGL
Clouds: scattered clouds at 2600 feet AGL
scattered clouds at 3000 feet AGL
Weather: no significant weather observed at this time

METAR text: DAOI 191000Z 34010KT 9999 SCT026 SCT030 16/09 Q1014
Conditions at: DAOI (CHLEF , DZ) observed 1000 UTC 19 April 2019
Temperature: 16.0°C (61°F)
Dewpoint: 9.0°C (48°F) [RH = 63%]
Pressure (altimeter): 29.94 inches Hg (1014.0 mb)
Winds: from the NNW (340 degrees) at 12 MPH (10 knots; 5.1 m/s)
Visibility: 6 or more miles (10+ km)
Ceiling: at least 12,000 feet AGL
Clouds: scattered clouds at 2600 feet AGL
scattered clouds at 3000 feet AGL
Weather: no significant weather observed at this time

METAR text: DAOI 190900Z 32006KT 9999 SCT026 SCT030 17/09 Q1014
Conditions at: DAOI (CHLEF , DZ) observed 0900 UTC 19 April 2019
Temperature: 17.0°C (63°F)
Dewpoint: 9.0°C (48°F) [RH = 59%]
Pressure (altimeter): 29.94 inches Hg (1014.0 mb)
Winds: from the NW (320 degrees) at 7 MPH (6 knots; 3.1 m/s)
Visibility: 6 or more miles (10+ km)
Ceiling: at least 12,000 feet AGL
Clouds: scattered clouds at 2600 feet AGL
scattered clouds at 3000 feet AGL
Weather: no significant weather observed at this time

METAR text: DAOI 190800Z 30006KT 9999 FEW026 SCT030 17/08 Q1014
Conditions at: DAOI (CHLEF , DZ) observed 0800 UTC 19 April 2019
Temperature: 17.0°C (63°F)
Dewpoint: 8.0°C (46°F) [RH = 55%]
Pressure (altimeter): 29.94 inches Hg (1014.0 mb)
Winds: from the WNW (300 degrees) at 7 MPH (6 knots; 3.1 m/s)
Visibility: 6 or more miles (10+ km)
Ceiling: at least 12,000 feet AGL
Clouds: few clouds at 2600 feet AGL
scattered clouds at 3000 feet AGL
Weather: no significant weather observed at this time

METAR text: DAOI 190700Z 00000KT 9999 SCT030 SCT100 16/11 Q1014
Conditions at: DAOI (CHLEF , DZ) observed 0700 UTC 19 April 2019
Temperature: 16.0°C (61°F)
Dewpoint: 11.0°C (52°F) [RH = 72%]
Pressure (altimeter): 29.94 inches Hg (1014.0 mb)
Winds: calm
Visibility: 6 or more miles (10+ km)
Ceiling: at least 12,000 feet AGL
Clouds: scattered clouds at 3000 feet AGL
scattered clouds at 10000 feet AGL
Weather: no significant weather observed at this time

METAR text: DAOI 190600Z 00000KT 9999 SCT030 SCT100 14/11 Q1014
Conditions at: DAOI (CHLEF , DZ) observed 0600 UTC 19 April 2019
Temperature: 14.0°C (57°F)
Dewpoint: 11.0°C (52°F) [RH = 82%]
Pressure (altimeter): 29.94 inches Hg (1014.0 mb)
Winds: calm
Visibility: 6 or more miles (10+ km)
Ceiling: at least 12,000 feet AGL
Clouds: scattered clouds at 3000 feet AGL
scattered clouds at 10000 feet AGL
Weather: no significant weather observed at this time

METAR text: DAOI 190500Z 00000KT 9999 SCT033 BKN100 14/11 Q1014
Conditions at: DAOI (CHLEF , DZ) observed 0500 UTC 19 April 2019
Temperature: 14.0°C (57°F)
Dewpoint: 11.0°C (52°F) [RH = 82%]
Pressure (altimeter): 29.94 inches Hg (1014.0 mb)
Winds: calm
Visibility: 6 or more miles (10+ km)
Ceiling: 10000 feet AGL
Clouds: scattered clouds at 3300 feet AGL
broken clouds at 10000 feet AGL
Weather: no significant weather observed at this time

METAR text: DAOI 190400Z 00000KT 9999 SCT028 BKN100 14/11 Q1014
Conditions at: DAOI (CHLEF , DZ) observed 0400 UTC 19 April 2019
Temperature: 14.0°C (57°F)
Dewpoint: 11.0°C (52°F) [RH = 82%]
Pressure (altimeter): 29.94 inches Hg (1014.0 mb)
Winds: calm
Visibility: 6 or more miles (10+ km)
Ceiling: 10000 feet AGL
Clouds: scattered clouds at 2800 feet AGL
broken clouds at 10000 feet AGL
Weather: no significant weather observed at this time

METAR text: DAOI 190300Z 00000KT 9999 SCT028 BKN100 14/11 Q1014
Conditions at: DAOI (CHLEF , DZ) observed 0300 UTC 19 April 2019
Temperature: 14.0°C (57°F)
Dewpoint: 11.0°C (52°F) [RH = 82%]
Pressure (altimeter): 29.94 inches Hg (1014.0 mb)
Winds: calm
Visibility: 6 or more miles (10+ km)
Ceiling: 10000 feet AGL
Clouds: scattered clouds at 2800 feet AGL
broken clouds at 10000 feet AGL
Weather: no significant weather observed at this time

METAR text: DAOI 190200Z 00000KT 9999 SCT028 BKN100 14/11 Q1014
Conditions at: DAOI (CHLEF , DZ) observed 0200 UTC 19 April 2019
Temperature: 14.0°C (57°F)
Dewpoint: 11.0°C (52°F) [RH = 82%]
Pressure (altimeter): 29.94 inches Hg (1014.0 mb)
Winds: calm
Visibility: 6 or more miles (10+ km)
Ceiling: 10000 feet AGL
Clouds: scattered clouds at 2800 feet AGL
broken clouds at 10000 feet AGL
Weather: no significant weather observed at this time

METAR text: DAOI 190100Z 00000KT 9999 SCT028 BKN100 15/12 Q1015
Conditions at: DAOI (CHLEF , DZ) observed 0100 UTC 19 April 2019
Temperature: 15.0°C (59°F)
Dewpoint: 12.0°C (54°F) [RH = 82%]
Pressure (altimeter): 29.97 inches Hg (1015.0 mb)
Winds: calm
Visibility: 6 or more miles (10+ km)
Ceiling: 10000 feet AGL
Clouds: scattered clouds at 2800 feet AGL
broken clouds at 10000 feet AGL
Weather: no significant weather observed at this time

METAR text: DAOI 190000Z 00000KT 9999 SCT028 BKN100 15/11 Q1019
Conditions at: DAOI (CHLEF , DZ) observed 0000 UTC 19 April 2019
Temperature: 15.0°C (59°F)
Dewpoint: 11.0°C (52°F) [RH = 77%]
Pressure (altimeter): 30.09 inches Hg (1019.0 mb)
Winds: calm
Visibility: 6 or more miles (10+ km)
Ceiling: 10000 feet AGL
Clouds: scattered clouds at 2800 feet AGL
broken clouds at 10000 feet AGL
Weather: no significant weather observed at this time

METAR text: DAOI 182300Z 00000KT 9999 SCT026 SCT028 15/11 Q1014
Conditions at: DAOI (CHLEF , DZ) observed 2300 UTC 18 April 2019
Temperature: 15.0°C (59°F)
Dewpoint: 11.0°C (52°F) [RH = 77%]
Pressure (altimeter): 29.94 inches Hg (1014.0 mb)
Winds: calm
Visibility: 6 or more miles (10+ km)
Ceiling: at least 12,000 feet AGL
Clouds: scattered clouds at 2600 feet AGL
scattered clouds at 2800 feet AGL
Weather: no significant weather observed at this time

METAR text: DAOI 182200Z 00000KT 9999 SCT026 SCT028 15/11 Q1014
Conditions at: DAOI (CHLEF , DZ) observed 2200 UTC 18 April 2019
Temperature: 15.0°C (59°F)
Dewpoint: 11.0°C (52°F) [RH = 77%]
Pressure (altimeter): 29.94 inches Hg (1014.0 mb)
Winds: calm
Visibility: 6 or more miles (10+ km)
Ceiling: at least 12,000 feet AGL
Clouds: scattered clouds at 2600 feet AGL
scattered clouds at 2800 feet AGL
Weather: no significant weather observed at this time

METAR text: DAOI 182100Z 00000KT 9999 SCT026 SCT028 16/11 Q1014
Conditions at: DAOI (CHLEF , DZ) observed 2100 UTC 18 April 2019
Temperature: 16.0°C (61°F)
Dewpoint: 11.0°C (52°F) [RH = 72%]
Pressure (altimeter): 29.94 inches Hg (1014.0 mb)
Winds: calm
Visibility: 6 or more miles (10+ km)
Ceiling: at least 12,000 feet AGL
Clouds: scattered clouds at 2600 feet AGL
scattered clouds at 2800 feet AGL
Weather: no significant weather observed at this time

METAR text: DAOI 182000Z 00000KT 9999 SCT026 BKN028 16/10 Q1013
Conditions at: DAOI (CHLEF , DZ) observed 2000 UTC 18 April 2019
Temperature: 16.0°C (61°F)
Dewpoint: 10.0°C (50°F) [RH = 68%]
Pressure (altimeter): 29.91 inches Hg (1013.0 mb)
Winds: calm
Visibility: 6 or more miles (10+ km)
Ceiling: 2800 feet AGL
Clouds: scattered clouds at 2600 feet AGL
broken clouds at 2800 feet AGL
Weather: no significant weather observed at this time

METAR text: DAOI 181900Z 00000KT 9999 SCT026 BKN028 16/10 Q1013
Conditions at: DAOI (CHLEF , DZ) observed 1900 UTC 18 April 2019
Temperature: 16.0°C (61°F)
Dewpoint: 10.0°C (50°F) [RH = 68%]
Pressure (altimeter): 29.91 inches Hg (1013.0 mb)
Winds: calm
Visibility: 6 or more miles (10+ km)
Ceiling: 2800 feet AGL
Clouds: scattered clouds at 2600 feet AGL
broken clouds at 2800 feet AGL
Weather: no significant weather observed at this time

METAR text: DAOI 181800Z 36015KT 9999 SCT026 BKN028 15/11 Q1012
Conditions at: DAOI (CHLEF , DZ) observed 1800 UTC 18 April 2019
Temperature: 15.0°C (59°F)
Dewpoint: 11.0°C (52°F) [RH = 77%]
Pressure (altimeter): 29.88 inches Hg (1012.0 mb)
Winds: from the N (360 degrees) at 17 MPH (15 knots; 7.7 m/s)
Visibility: 6 or more miles (10+ km)
Ceiling: 2800 feet AGL
Clouds: scattered clouds at 2600 feet AGL
broken clouds at 2800 feet AGL
Weather: no significant weather observed at this time

METAR text: DAOI 181700Z 30014KT 9999 SCT026 SCT030 17/13 Q1012
Conditions at: DAOI (CHLEF , DZ) observed 1700 UTC 18 April 2019
Temperature: 17.0°C (63°F)
Dewpoint: 13.0°C (55°F) [RH = 77%]
Pressure (altimeter): 29.88 inches Hg (1012.0 mb)
Winds: from the WNW (300 degrees) at 16 MPH (14 knots; 7.2 m/s)
Visibility: 6 or more miles (10+ km)
Ceiling: at least 12,000 feet AGL
Clouds: scattered clouds at 2600 feet AGL
scattered clouds at 3000 feet AGL
Weather: no significant weather observed at this time

METAR text: DAOI 181600Z 30015KT 9999 SCT030 BKN100 18/12 Q1011
Conditions at: DAOI (CHLEF , DZ) observed 1600 UTC 18 April 2019
Temperature: 18.0°C (64°F)
Dewpoint: 12.0°C (54°F) [RH = 68%]
Pressure (altimeter): 29.85 inches Hg (1011.0 mb)
Winds: from the WNW (300 degrees) at 17 MPH (15 knots; 7.7 m/s)
Visibility: 6 or more miles (10+ km)
Ceiling: 10000 feet AGL
Clouds: scattered clouds at 3000 feet AGL
broken clouds at 10000 feet AGL
Weather: no significant weather observed at this time

METAR text: DAOI 181500Z 28014KT 9999 SCT030 BKN100 21/11 Q1011
Conditions at: DAOI (CHLEF , DZ) observed 1500 UTC 18 April 2019
Temperature: 21.0°C (70°F)
Dewpoint: 11.0°C (52°F) [RH = 53%]
Pressure (altimeter): 29.85 inches Hg (1011.0 mb)
Winds: from the W (280 degrees) at 16 MPH (14 knots; 7.2 m/s)
Visibility: 6 or more miles (10+ km)
Ceiling: 10000 feet AGL
Clouds: scattered clouds at 3000 feet AGL
broken clouds at 10000 feet AGL
Weather: no significant weather observed at this time

METAR text: DAOI 181400Z 26014KT 9999 SCT030 BKN100 22/12 Q1010
Conditions at: DAOI (CHLEF , DZ) observed 1400 UTC 18 April 2019
Temperature: 22.0°C (72°F)
Dewpoint: 12.0°C (54°F) [RH = 53%]
Pressure (altimeter): 29.82 inches Hg (1010.0 mb)
Winds: from the W (260 degrees) at 16 MPH (14 knots; 7.2 m/s)
Visibility: 6 or more miles (10+ km)
Ceiling: 10000 feet AGL
Clouds: scattered clouds at 3000 feet AGL
broken clouds at 10000 feet AGL
Weather: no significant weather observed at this time

METAR text: DAOI 181300Z 26012KT 9999 SCT030 BKN100 21/12 Q1010
Conditions at: DAOI (CHLEF , DZ) observed 1300 UTC 18 April 2019
Temperature: 21.0°C (70°F)
Dewpoint: 12.0°C (54°F) [RH = 56%]
Pressure (altimeter): 29.82 inches Hg (1010.0 mb)
Winds: from the W (260 degrees) at 14 MPH (12 knots; 6.2 m/s)
Visibility: 6 or more miles (10+ km)
Ceiling: 10000 feet AGL
Clouds: scattered clouds at 3000 feet AGL
broken clouds at 10000 feet AGL
Weather: no significant weather observed at this time

Forecast for: DAOI (CHLEF , DZ)
Text: TAF DAOI 192300Z 2000/2024 24010KT 7000 SCT026 BKN030
Forecast period: 0000 to 1000 UTC 20 April 2019
Forecast type: FROM: standard forecast or significant change
Winds: from the WSW (240 degrees) at 12 MPH (10 knots; 5.1 m/s)
Visibility: 4 miles (7 km)
Ceiling: 3000 feet AGL
Clouds: scattered clouds at 2600 feet AGL
broken clouds at 3000 feet AGL
Weather: no significant weather forecast for this period
Text: TEMPO 2000/2008 RA
Forecast period: 0000 to 0800 UTC 20 April 2019
Forecast type: TEMPORARY: The following changes expected for less than half the time period
Visibility: missing
Ceiling: unknown
Clouds: missing
Weather: RA  (moderate rain)
Text: PROB40
Forecast period: 0400 to 0800 UTC 20 April 2019
Forecast type: TEMPORARY: The following changes expected for less than half the time period
Winds: variable direction winds at 2 MPH (2 knots; 1.0 m/s)
Visibility: 1.86 miles (2.99 km)
Ceiling: 3000 feet AGL
Clouds: scattered clouds at 1000 feet AGL
scattered clouds at 2600 feet AGL
broken clouds at 3000 feet AGL
Weather: RA BR  (moderate rain, mist)
Text: TEMPO 2004/2008 VRB02KT 3000 RABR SCT010 SCT026 BKN030
Forecast period: 1000 UTC 20 April 2019 to 0000 UTC 21 April 2019
Forecast type: BECOMING: Conditions expected to become as follows by 1200 UTC 20 April 2019
Winds: from the NW (320 degrees) at 12 MPH (10 knots; 5.1 m/s)
Visibility: 6 or more miles 10+ km)
Ceiling: at least 12,000 feet AGL
Clouds: scattered clouds at 2600 feet AGL
Weather: no significant weather forecast for this period